createdAt,value
2022-07-25T00:00:54.407Z,15.18
2022-07-25T00:03:28.481Z,15.11
2022-07-25T00:06:01.610Z,15.02
2022-07-25T00:08:34.152Z,14.95
2022-07-25T00:11:06.885Z,14.85
2022-07-25T00:13:39.199Z,14.79
2022-07-25T00:16:12.111Z,14.75
2022-07-25T00:18:44.815Z,14.71
2022-07-25T00:21:17.135Z,14.66
2022-07-25T00:23:49.465Z,14.58
2022-07-25T00:26:22.311Z,14.52
2022-07-25T00:28:54.634Z,14.48
2022-07-25T00:31:28.112Z,14.43
2022-07-25T00:34:00.696Z,14.37
2022-07-25T00:36:33.240Z,14.28
2022-07-25T00:39:05.936Z,14.15
2022-07-25T00:41:38.884Z,14.04
2022-07-25T00:44:22.959Z,13.95
2022-07-25T00:47:00.236Z,13.89
2022-07-25T00:49:33.266Z,13.87
2022-07-25T00:52:06.007Z,13.91
2022-07-25T00:54:39.475Z,14.01
2022-07-25T00:57:12.377Z,13.98
2022-07-25T00:59:44.796Z,13.93
2022-07-25T01:02:17.444Z,13.97
2022-07-25T01:04:49.941Z,13.95
2022-07-25T01:07:23.023Z,13.99
2022-07-25T01:09:56.114Z,14.00
2022-07-25T01:12:29.526Z,13.99
2022-07-25T01:15:01.936Z,13.98
2022-07-25T01:17:34.686Z,13.95
2022-07-25T01:20:08.265Z,14.01
2022-07-25T01:22:38.846Z,14.05
2022-07-25T01:25:11.833Z,13.93
2022-07-25T01:27:46.503Z,13.92
2022-07-25T01:30:22.194Z,13.98
2022-07-25T01:32:53.417Z,13.94
2022-07-25T01:35:26.227Z,13.88
2022-07-25T01:37:58.695Z,13.86
2022-07-25T01:40:32.987Z,13.91
2022-07-25T01:43:05.617Z,13.86
2022-07-25T01:45:39.258Z,13.98
2022-07-25T01:48:09.949Z,13.98
2022-07-25T01:50:42.242Z,13.86
2022-07-25T01:53:15.025Z,13.87
2022-07-25T01:55:48.306Z,13.89
2022-07-25T01:58:21.305Z,13.87
2022-07-25T02:00:52.226Z,13.81
2022-07-25T02:03:32.025Z,13.75
2022-07-25T02:06:08.355Z,13.79
2022-07-25T02:08:43.728Z,13.84
2022-07-25T02:11:16.456Z,13.80
2022-07-25T02:13:49.508Z,13.80
2022-07-25T02:16:20.309Z,13.75
2022-07-25T02:19:01.788Z,13.66
2022-07-25T02:21:34.585Z,13.71
2022-07-25T02:24:08.481Z,13.70
2022-07-25T02:26:41.548Z,13.71
2022-07-25T02:29:13.991Z,13.68
2022-07-25T02:31:46.616Z,13.69
2022-07-25T02:34:19.030Z,13.67
2022-07-25T02:36:53.900Z,13.65
2022-07-25T02:39:26.685Z,13.66
2022-07-25T02:41:59.239Z,13.65
2022-07-25T02:44:32.399Z,13.67
2022-07-25T02:47:04.966Z,13.65
2022-07-25T02:49:37.355Z,13.64
2022-07-25T02:52:10.039Z,13.62
2022-07-25T02:54:42.547Z,13.61
2022-07-25T02:57:14.947Z,13.61
2022-07-25T02:59:47.477Z,13.61
2022-07-25T03:02:20.037Z,13.62
2022-07-25T03:04:52.825Z,13.62
2022-07-25T03:07:25.247Z,13.62
2022-07-25T03:09:58.575Z,13.59
2022-07-25T03:12:34.276Z,13.54
2022-07-25T03:15:08.532Z,13.51
2022-07-25T03:17:40.817Z,13.46
2022-07-25T03:20:13.992Z,13.37
2022-07-25T03:22:46.567Z,13.31
2022-07-25T03:25:22.078Z,13.27
2022-07-25T03:27:54.889Z,13.25
2022-07-25T03:30:27.388Z,13.27
2022-07-25T03:32:59.916Z,13.33
2022-07-25T03:35:32.862Z,13.36
2022-07-25T03:38:08.097Z,13.39
2022-07-25T03:40:41.056Z,13.48
2022-07-25T03:43:13.533Z,13.58
2022-07-25T03:45:46.587Z,13.62
2022-07-25T03:48:19.237Z,13.67
2022-07-25T03:50:52.157Z,13.74
2022-07-25T03:53:24.867Z,13.82
2022-07-25T03:55:57.176Z,13.91
2022-07-25T03:58:31.050Z,14.01
2022-07-25T04:01:03.411Z,14.13
2022-07-25T04:03:36.695Z,14.23
2022-07-25T04:06:09.938Z,14.31
2022-07-25T04:08:42.816Z,14.36
2022-07-25T04:11:15.790Z,14.42
2022-07-25T04:13:48.582Z,14.49
2022-07-25T04:16:22.791Z,14.57
2022-07-25T04:18:56.287Z,14.75
2022-07-25T04:21:28.067Z,14.87
2022-07-25T04:24:02.053Z,14.98
2022-07-25T04:26:36.229Z,15.19
2022-07-25T04:29:09.178Z,15.41
2022-07-25T04:31:43.876Z,15.67
2022-07-25T04:34:18.622Z,15.83
2022-07-25T04:36:51.488Z,16.02
2022-07-25T04:39:25.290Z,16.23
2022-07-25T04:41:57.868Z,16.38
2022-07-25T04:44:32.177Z,16.50
2022-07-25T04:47:04.836Z,16.59
2022-07-25T04:49:37.434Z,16.73
2022-07-25T04:52:10.027Z,16.87
2022-07-25T04:54:42.394Z,17.00
2022-07-25T04:57:14.686Z,17.16
2022-07-25T04:59:46.958Z,17.35
2022-07-25T05:02:19.552Z,17.53
2022-07-25T05:04:52.224Z,17.70
2022-07-25T05:07:24.895Z,17.83
2022-07-25T05:09:59.047Z,17.98
2022-07-25T05:12:32.137Z,18.13
2022-07-25T05:15:06.409Z,18.29
2022-07-25T05:17:38.972Z,18.47
2022-07-25T05:20:13.793Z,18.62
2022-07-25T05:22:46.416Z,18.69
2022-07-25T05:25:19.326Z,18.81
2022-07-25T05:27:52.176Z,19.00
2022-07-25T05:30:24.635Z,19.13
2022-07-25T05:32:57.196Z,19.21
2022-07-25T05:35:29.638Z,19.27
2022-07-25T05:38:04.876Z,19.43
2022-07-25T05:40:37.396Z,19.66
2022-07-25T05:43:10.374Z,19.82
2022-07-25T05:45:43.535Z,19.87
2022-07-25T05:48:16.456Z,20.07
2022-07-25T05:50:48.762Z,20.35
2022-07-25T05:53:21.312Z,20.45
2022-07-25T05:55:53.755Z,20.53
2022-07-25T05:58:29.746Z,20.46
2022-07-25T06:01:02.807Z,20.50
2022-07-25T06:03:36.594Z,20.54
2022-07-25T06:06:11.469Z,20.86
2022-07-25T06:08:44.615Z,21.16
2022-07-25T06:11:17.918Z,21.36
2022-07-25T06:13:53.607Z,21.40
2022-07-25T06:16:26.307Z,21.45
2022-07-25T06:18:58.965Z,21.43
2022-07-25T06:21:31.476Z,21.57
2022-07-25T06:24:05.102Z,21.50
2022-07-25T06:26:35.667Z,21.53
2022-07-25T06:29:08.441Z,21.68
2022-07-25T06:31:38.973Z,21.72
2022-07-25T06:34:11.655Z,21.76
2022-07-25T06:36:44.489Z,21.91
2022-07-25T06:39:17.047Z,21.68
2022-07-25T06:41:49.918Z,21.82
2022-07-25T06:44:23.351Z,21.79
2022-07-25T06:46:55.676Z,21.95
2022-07-25T06:49:31.407Z,21.87
2022-07-25T06:52:02.023Z,21.91
2022-07-25T06:54:34.645Z,21.70
2022-07-25T06:57:07.348Z,21.86
2022-07-25T06:59:40.374Z,22.07
2022-07-25T07:02:10.946Z,22.13
2022-07-25T07:04:43.294Z,22.20
2022-07-25T07:07:16.658Z,22.47
2022-07-25T07:09:49.078Z,22.51
2022-07-25T07:12:21.586Z,22.70
2022-07-25T07:14:54.506Z,22.75
2022-07-25T07:17:26.885Z,22.97
2022-07-25T07:19:59.639Z,22.97
2022-07-25T07:22:31.916Z,23.26
2022-07-25T07:25:05.614Z,23.53
2022-07-25T07:27:38.866Z,23.51
2022-07-25T07:30:15.358Z,23.36
2022-07-25T07:32:48.736Z,23.24
2022-07-25T07:35:21.473Z,23.46
2022-07-25T07:37:55.341Z,23.62
2022-07-25T07:40:28.687Z,23.60
2022-07-25T07:43:03.906Z,23.77
2022-07-25T07:45:36.876Z,23.72
2022-07-25T07:48:10.062Z,23.66
2022-07-25T07:50:43.618Z,23.78
2022-07-25T07:53:15.904Z,23.89
2022-07-25T07:55:49.234Z,24.00
2022-07-25T07:58:22.915Z,24.28
2022-07-25T08:00:55.346Z,24.46
2022-07-25T08:03:28.177Z,24.44
2022-07-25T08:05:58.877Z,24.64
2022-07-25T08:08:31.755Z,24.84
2022-07-25T08:11:05.486Z,25.11
2022-07-25T08:13:38.491Z,25.07
2022-07-25T08:16:12.379Z,25.08
2022-07-25T08:18:44.856Z,24.68
2022-07-25T08:21:17.336Z,25.03
2022-07-25T08:23:49.667Z,25.10
2022-07-25T08:26:22.104Z,24.97
2022-07-25T08:29:11.108Z,25.08
2022-07-25T08:31:47.231Z,25.24
2022-07-25T08:34:17.776Z,25.57
2022-07-25T08:36:50.264Z,25.44
2022-07-25T08:39:22.789Z,25.38
2022-07-25T08:41:55.848Z,25.59
2022-07-25T08:44:35.976Z,25.86
2022-07-25T08:47:09.662Z,26.01
2022-07-25T08:49:43.384Z,26.05
2022-07-25T08:52:16.804Z,26.09
2022-07-25T08:54:50.945Z,26.26
2022-07-25T08:57:23.350Z,26.45
2022-07-25T08:59:58.035Z,25.93
2022-07-25T09:05:38.987Z,26.02
2022-07-25T09:08:13.677Z,26.35
2022-07-25T09:10:49.843Z,26.53
2022-07-25T09:13:24.039Z,26.62
2022-07-25T09:18:45.730Z,26.30
2022-07-25T09:21:20.368Z,26.15
2022-07-25T09:23:52.817Z,25.89
2022-07-25T09:29:20.428Z,25.61
2022-07-25T09:35:15.866Z,25.72
2022-07-25T09:37:48.473Z,26.17
2022-07-25T09:40:21.269Z,26.24
2022-07-25T09:46:19.609Z,26.40
2022-07-25T09:49:11.302Z,26.35
2022-07-25T09:51:44.202Z,26.16
2022-07-25T09:54:15.176Z,26.11
2022-07-25T09:56:47.708Z,26.20
2022-07-25T10:05:17.357Z,26.43
2022-07-25T10:07:57.410Z,26.64
2022-07-25T10:10:32.770Z,26.77
2022-07-25T10:13:34.651Z,26.74
2022-07-25T10:16:25.722Z,26.73
2022-07-25T10:19:15.467Z,26.90
2022-07-25T10:27:49.048Z,27.36
2022-07-25T10:30:25.543Z,27.67
2022-07-25T10:33:06.806Z,27.91
2022-07-25T10:36:07.523Z,27.94
2022-07-25T10:38:58.655Z,27.93
2022-07-25T10:42:01.354Z,28.00
2022-07-25T10:44:51.117Z,27.45
2022-07-25T10:51:00.491Z,27.27
2022-07-25T10:53:46.670Z,27.53
2022-07-25T10:59:51.755Z,27.74
2022-07-25T11:05:13.466Z,27.56
2022-07-25T11:08:20.007Z,27.87
2022-07-25T11:10:54.406Z,27.46
2022-07-25T11:13:27.386Z,27.16
2022-07-25T11:16:16.437Z,26.94
2022-07-25T11:18:49.785Z,27.21
2022-07-25T11:21:23.047Z,27.37
2022-07-25T11:23:56.142Z,27.67
2022-07-25T11:26:57.856Z,27.79
2022-07-25T11:29:57.751Z,27.65
2022-07-25T11:33:03.017Z,27.93
2022-07-25T11:35:53.999Z,28.06
2022-07-25T11:41:43.525Z,27.82
2022-07-25T11:44:16.425Z,27.72
2022-07-25T11:46:54.255Z,27.88
2022-07-25T11:49:56.745Z,27.81
2022-07-25T11:53:00.832Z,28.16
2022-07-25T11:55:51.768Z,28.01
2022-07-25T12:01:17.225Z,28.19
2022-07-25T12:04:16.120Z,27.70
2022-07-25T12:06:50.604Z,27.79
2022-07-25T12:12:50.685Z,28.50
2022-07-25T12:15:25.366Z,28.72
2022-07-25T12:17:59.786Z,28.90
2022-07-25T12:20:34.105Z,28.82
2022-07-25T12:23:09.776Z,28.81
2022-07-25T12:25:43.836Z,28.74
2022-07-25T12:28:16.763Z,28.16
2022-07-25T12:30:56.046Z,28.18
2022-07-25T12:33:29.378Z,28.59
2022-07-25T12:36:08.078Z,28.55
2022-07-25T12:38:41.145Z,28.55
2022-07-25T12:41:17.494Z,28.76
2022-07-25T12:43:50.297Z,28.45
2022-07-25T12:46:21.468Z,28.06
2022-07-25T12:48:54.418Z,27.78
2022-07-25T12:51:27.136Z,28.04
2022-07-25T12:53:59.928Z,28.31
2022-07-25T12:56:32.784Z,28.29
2022-07-25T12:59:08.218Z,28.16
2022-07-25T13:01:41.023Z,28.00
2022-07-25T13:04:11.651Z,28.30
2022-07-25T13:06:44.317Z,28.39
2022-07-25T13:09:17.565Z,28.66
2022-07-25T13:11:50.227Z,28.86
2022-07-25T13:14:23.285Z,28.50
2022-07-25T13:16:55.736Z,28.73
2022-07-25T13:19:28.980Z,28.71
2022-07-25T13:22:01.686Z,28.93
2022-07-25T13:24:34.967Z,29.02
2022-07-25T13:27:06.265Z,29.04
2022-07-25T13:29:38.884Z,28.89
2022-07-25T13:32:12.015Z,28.93
2022-07-25T13:34:44.712Z,28.68
2022-07-25T13:37:17.193Z,28.62
2022-07-25T13:39:52.805Z,28.70
2022-07-25T13:42:25.254Z,28.90
2022-07-25T13:44:57.954Z,28.92
2022-07-25T13:47:30.708Z,28.87
2022-07-25T13:50:03.497Z,28.92
2022-07-25T13:52:35.985Z,28.52
2022-07-25T13:55:07.887Z,28.26
2022-07-25T13:57:40.056Z,28.34
2022-07-25T14:00:15.066Z,28.71
2022-07-25T14:02:47.757Z,28.99
2022-07-25T14:05:20.537Z,29.14
2022-07-25T14:07:55.928Z,29.26
2022-07-25T14:10:28.717Z,29.46
2022-07-25T14:13:01.258Z,29.58
2022-07-25T14:15:33.987Z,29.76
2022-07-25T14:18:06.553Z,29.80
2022-07-25T14:20:37.438Z,29.07
2022-07-25T14:23:10.045Z,29.15
2022-07-25T14:25:43.236Z,29.30
2022-07-25T14:28:18.322Z,29.18
2022-07-25T14:30:51.298Z,29.08
2022-07-25T14:33:24.905Z,28.83
2022-07-25T14:35:57.810Z,28.88
2022-07-25T14:38:30.845Z,29.15
2022-07-25T14:41:03.286Z,29.23
2022-07-25T14:43:35.728Z,29.47
2022-07-25T14:46:09.466Z,29.25
2022-07-25T14:48:42.165Z,29.19
2022-07-25T14:51:14.822Z,29.33
2022-07-25T14:53:52.756Z,29.45
2022-07-25T14:56:31.635Z,29.23
2022-07-25T14:59:05.183Z,29.32
2022-07-25T15:01:38.267Z,29.08
2022-07-25T15:04:10.966Z,28.89
2022-07-25T15:06:43.581Z,29.12
2022-07-25T15:09:16.208Z,29.34
2022-07-25T15:11:52.207Z,29.30
2022-07-25T15:14:24.618Z,29.13
2022-07-25T15:16:57.110Z,28.73
2022-07-25T15:19:28.547Z,28.77
2022-07-25T15:22:06.326Z,28.69
2022-07-25T15:25:04.320Z,28.96
2022-07-25T15:27:31.707Z,28.88
2022-07-25T15:30:02.466Z,28.60
2022-07-25T15:32:35.416Z,28.55
2022-07-25T15:35:09.917Z,28.65
2022-07-25T15:37:43.008Z,28.63
2022-07-25T15:40:17.149Z,28.72
2022-07-25T15:42:49.727Z,28.77
2022-07-25T15:45:33.614Z,28.54
2022-07-25T15:48:09.996Z,28.61
2022-07-25T15:50:45.024Z,28.54
2022-07-25T15:53:18.116Z,28.55
2022-07-25T15:55:52.974Z,28.60
2022-07-25T15:58:27.327Z,28.55
2022-07-25T16:00:59.775Z,28.29
2022-07-25T16:03:33.755Z,28.39
2022-07-25T16:06:06.787Z,28.44
2022-07-25T16:08:40.198Z,28.32
2022-07-25T16:11:12.615Z,28.36
2022-07-25T16:13:45.457Z,28.45
2022-07-25T16:16:17.859Z,28.46
2022-07-25T16:18:50.725Z,28.37
2022-07-25T16:21:23.142Z,28.29
2022-07-25T16:23:56.066Z,28.11
2022-07-25T16:26:28.427Z,27.99
2022-07-25T16:28:59.596Z,27.87
2022-07-25T16:31:32.414Z,27.67
2022-07-25T16:34:05.336Z,27.61
2022-07-25T16:36:38.506Z,27.69
2022-07-25T16:39:11.123Z,27.80
2022-07-25T16:41:44.618Z,27.69
2022-07-25T16:44:17.315Z,27.68
2022-07-25T16:46:49.959Z,27.66
2022-07-25T16:49:23.281Z,27.55
2022-07-25T16:51:55.898Z,27.42
2022-07-25T16:54:28.917Z,27.46
2022-07-25T16:57:04.033Z,27.27
2022-07-25T16:59:37.987Z,27.31
2022-07-25T17:02:11.586Z,27.27
2022-07-25T17:04:44.605Z,27.26
2022-07-25T17:07:17.277Z,27.27
2022-07-25T17:09:50.997Z,27.31
2022-07-25T17:12:26.492Z,27.28
2022-07-25T17:14:59.580Z,27.29
2022-07-25T17:17:34.977Z,27.27
2022-07-25T17:20:08.807Z,27.18
2022-07-25T17:22:41.404Z,27.10
2022-07-25T17:25:14.568Z,26.91
2022-07-25T17:27:47.327Z,26.80
2022-07-25T17:30:19.768Z,26.67
2022-07-25T17:32:53.618Z,26.54
2022-07-25T17:35:26.306Z,26.42
2022-07-25T17:37:58.845Z,26.26
2022-07-25T17:40:32.567Z,26.19
2022-07-25T17:43:05.035Z,26.10
2022-07-25T17:45:40.058Z,25.98
2022-07-25T17:48:12.567Z,25.92
2022-07-25T17:50:46.308Z,25.83
2022-07-25T17:53:20.287Z,25.79
2022-07-25T17:55:55.535Z,25.68
2022-07-25T17:58:27.845Z,25.58
2022-07-25T18:01:08.439Z,25.48
2022-07-25T18:03:43.207Z,25.38
2022-07-25T18:06:14.227Z,25.21
2022-07-25T18:08:46.649Z,24.93
2022-07-25T18:11:19.445Z,24.76
2022-07-25T18:13:52.904Z,24.68
2022-07-25T18:16:27.074Z,24.56
2022-07-25T18:18:59.535Z,24.50
2022-07-25T18:21:32.997Z,24.51
2022-07-25T18:24:08.221Z,24.44
2022-07-25T18:26:41.166Z,24.37
2022-07-25T18:29:14.125Z,24.24
2022-07-25T18:31:44.854Z,24.09
2022-07-25T18:34:17.204Z,23.87
2022-07-25T18:36:50.127Z,23.73
2022-07-25T18:39:22.324Z,23.66
2022-07-25T18:41:54.957Z,23.42
2022-07-25T18:44:27.227Z,23.37
2022-07-25T18:47:00.186Z,23.30
2022-07-25T18:49:54.926Z,22.99
2022-07-25T18:52:47.416Z,22.87
2022-07-25T18:55:19.995Z,22.68
2022-07-25T18:57:52.727Z,22.53
2022-07-25T19:00:23.515Z,22.26
2022-07-25T19:02:55.896Z,21.98
2022-07-25T19:05:28.299Z,21.94
2022-07-25T19:08:01.292Z,21.77
2022-07-25T19:10:33.639Z,21.69
2022-07-25T19:13:06.487Z,21.60
2022-07-25T19:15:39.297Z,21.49
2022-07-25T19:18:12.306Z,21.43
2022-07-25T19:20:45.786Z,21.48
2022-07-25T19:23:19.113Z,21.32
2022-07-25T19:25:52.696Z,21.35
2022-07-25T19:28:25.706Z,21.21
2022-07-25T19:30:58.326Z,21.26
2022-07-25T19:33:35.950Z,21.36
2022-07-25T19:36:09.874Z,21.44
2022-07-25T19:38:42.355Z,21.61
2022-07-25T19:41:15.639Z,21.70
2022-07-25T19:43:48.332Z,21.80
2022-07-25T19:46:25.426Z,21.81
2022-07-25T19:48:58.021Z,21.77
2022-07-25T19:51:30.787Z,21.65
2022-07-25T19:54:05.303Z,21.46
2022-07-25T19:56:39.545Z,21.49
2022-07-25T19:59:12.135Z,21.68
2022-07-25T20:01:47.073Z,21.79
2022-07-25T20:04:23.542Z,22.01
2022-07-25T20:06:56.086Z,22.13
2022-07-25T20:09:29.659Z,22.15
2022-07-25T20:12:02.755Z,22.22
2022-07-25T20:14:33.422Z,22.21
2022-07-25T20:17:05.797Z,22.16
2022-07-25T20:19:39.441Z,22.19
2022-07-25T20:22:12.138Z,22.26
2022-07-25T20:24:45.073Z,22.33
2022-07-25T20:27:17.436Z,22.37
2022-07-25T20:29:51.488Z,22.44
2022-07-25T20:32:24.509Z,22.46
2022-07-25T20:34:57.637Z,22.47
2022-07-25T20:37:29.997Z,22.49
2022-07-25T20:40:02.397Z,22.45
2022-07-25T20:42:34.979Z,22.45
2022-07-25T20:45:09.225Z,22.42
2022-07-25T20:47:41.526Z,22.41
2022-07-25T20:50:14.806Z,22.29
2022-07-25T20:52:47.548Z,22.26
2022-07-25T20:55:20.039Z,22.25
2022-07-25T20:57:52.475Z,22.22
2022-07-25T21:00:28.307Z,22.12
2022-07-25T21:03:01.228Z,22.02
2022-07-25T21:05:34.256Z,22.00
2022-07-25T21:08:04.929Z,21.87
2022-07-25T21:10:37.328Z,21.63
2022-07-25T21:13:09.637Z,21.60
2022-07-25T21:15:42.959Z,21.47
2022-07-25T21:18:15.941Z,21.40
2022-07-25T21:20:54.607Z,21.31
2022-07-25T21:23:27.965Z,21.20
2022-07-25T21:26:00.487Z,21.20
2022-07-25T21:28:32.877Z,21.19
2022-07-25T21:31:06.158Z,21.14
2022-07-25T21:33:38.487Z,21.03
2022-07-25T21:36:12.696Z,20.99
2022-07-25T21:38:45.626Z,20.89
2022-07-25T21:41:18.462Z,20.86
2022-07-25T21:43:49.385Z,20.85
2022-07-25T21:46:22.090Z,20.70
2022-07-25T21:49:12.000Z,20.69
2022-07-25T21:51:45.415Z,20.58
2022-07-25T21:54:18.063Z,20.47
2022-07-25T21:56:50.687Z,20.30
2022-07-25T22:02:31.895Z,20.23
2022-07-25T22:05:04.886Z,20.24
2022-07-25T22:07:37.785Z,20.23
2022-07-25T22:10:14.473Z,20.18
2022-07-25T22:12:46.847Z,20.13
2022-07-25T22:15:19.726Z,20.11
2022-07-25T22:17:53.785Z,20.05
2022-07-25T22:20:26.578Z,20.01
2022-07-25T22:22:59.139Z,19.98
2022-07-25T22:25:31.757Z,19.94
2022-07-25T22:28:05.996Z,19.97
2022-07-25T22:30:42.897Z,19.92
2022-07-25T22:33:15.597Z,19.85
2022-07-25T22:35:48.026Z,19.79
2022-07-25T22:38:21.938Z,19.84
2022-07-25T22:40:54.512Z,19.80
2022-07-25T22:43:56.954Z,19.73
2022-07-25T22:46:20.127Z,19.67
2022-07-25T22:48:52.966Z,19.65
2022-07-25T22:51:26.847Z,19.66
2022-07-25T22:53:59.776Z,19.57
2022-07-25T22:56:35.058Z,19.46
2022-07-25T22:59:11.461Z,19.47
2022-07-25T23:01:43.887Z,19.48
2022-07-25T23:04:16.436Z,19.58
2022-07-25T23:06:48.826Z,19.50
2022-07-25T23:09:21.425Z,19.55
2022-07-25T23:11:56.938Z,19.49
2022-07-25T23:14:31.602Z,19.51
2022-07-25T23:17:20.372Z,19.57
2022-07-25T23:19:54.807Z,19.45
2022-07-25T23:22:28.559Z,19.28
2022-07-25T23:25:01.839Z,19.28
2022-07-25T23:27:34.819Z,19.30
2022-07-25T23:30:08.695Z,19.27
2022-07-25T23:32:41.488Z,19.23
2022-07-25T23:35:14.292Z,19.50
2022-07-25T23:37:46.713Z,19.56
2022-07-25T23:40:19.275Z,19.44
2022-07-25T23:42:51.918Z,19.51
2022-07-25T23:45:25.476Z,19.59
2022-07-25T23:48:01.227Z,19.56
2022-07-25T23:50:33.956Z,19.58
2022-07-25T23:53:06.277Z,19.50
2022-07-25T23:55:38.856Z,19.42
2022-07-25T23:58:11.506Z,19.51
